Time;durP1;ratioP1;P1;durP2;ratioP2;P2;SDS_P1;SDS_P2;PMS_P1;PMS_P2;Temp;Humidity;BMP_temperature;BMP_pressure;BME280_temperature;BME280_humidity;BME280_pressure;Samples;Min_cycle;Max_cycle;Signal;HPM_P1;HPM_P2
2022/06/10 00:01:53;;;;;;;9.65;1.55;;;;;;;16.57;100.00;100311.13;5049347;28;20049;-83
2022/06/10 00:04:20;;;;;;;5.65;1.25;;;;;;;16.59;100.00;100317.16;5044271;28;20049;-82
2022/06/10 00:06:47;;;;;;;11.80;1.85;;;;;;;16.12;100.00;100309.75;5044560;28;20057;-82
2022/06/10 00:09:14;;;;;;;5.38;1.17;;;;;;;16.12;100.00;100311.56;5040578;28;20049;-82
2022/06/10 00:11:41;;;;;;;10.60;1.88;;;;;;;16.02;100.00;100311.31;5042948;28;20058;-82
2022/06/10 00:14:08;;;;;;;4.30;1.13;;;;;;;16.13;100.00;100323.81;5043007;28;20491;-82
2022/06/10 00:16:35;;;;;;;6.70;1.35;;;;;;;16.12;100.00;100307.09;5042732;28;20044;-82
2022/06/10 00:19:02;;;;;;;7.03;1.27;;;;;;;15.96;100.00;100295.91;5039155;28;20511;-82
2022/06/10 00:21:29;;;;;;;2.95;1.00;;;;;;;16.01;100.00;100307.00;5041729;28;20549;-82
2022/06/10 00:23:56;;;;;;;7.82;1.50;;;;;;;15.93;100.00;100309.28;5042504;28;20525;-82
2022/06/10 00:26:22;;;;;;;6.20;1.20;;;;;;;16.05;100.00;100302.34;5056690;28;20056;-82
2022/06/10 00:28:49;;;;;;;4.07;1.25;;;;;;;16.30;100.00;100293.59;5038655;28;20135;-82
2022/06/10 00:31:17;;;;;;;3.50;1.48;;;;;;;16.36;100.00;100285.28;5047616;28;20053;-82
2022/06/10 00:33:50;;;;;;;6.40;1.25;;;;;;;16.53;100.00;100307.88;5042732;28;20465;-82
2022/06/10 00:36:17;;;;;;;3.38;1.10;;;;;;;16.27;100.00;100312.28;5044232;28;20545;-82
2022/06/10 00:38:44;;;;;;;2.92;1.02;;;;;;;16.30;100.00;100289.16;5038802;28;20392;-82
2022/06/10 00:41:11;;;;;;;5.38;1.20;;;;;;;16.31;100.00;100282.09;5044845;28;20049;-82
2022/06/10 00:43:37;;;;;;;4.30;1.25;;;;;;;16.11;100.00;100305.44;5043782;28;20087;-82
2022/06/10 00:46:40;;;;;;;5.60;1.30;;;;;;;16.38;100.00;100324.75;5044210;28;20048;-82
2022/06/10 00:49:07;;;;;;;3.83;1.20;;;;;;;16.25;100.00;100330.03;5028810;28;20087;-82
2022/06/10 00:51:40;;;;;;;4.45;1.00;;;;;;;16.48;100.00;100307.34;5031894;28;20045;-82
2022/06/10 00:54:30;;;;;;;4.40;1.15;;;;;;;16.52;100.00;100308.84;5049052;28;20056;-82
2022/06/10 00:57:14;;;;;;;5.32;1.20;;;;;;;16.59;100.00;100309.22;5040979;28;20049;-82
2022/06/10 00:59:47;;;;;;;4.25;1.27;;;;;;;16.59;100.00;100301.31;5045133;28;20538;-82
2022/06/10 01:02:20;;;;;;;2.33;0.90;;;;;;;16.32;100.00;100294.34;5042221;28;20049;-82
2022/06/10 01:04:47;;;;;;;6.65;1.90;;;;;;;16.15;100.00;100300.78;5049625;28;20139;-82
2022/06/10 01:07:17;;;;;;;4.25;1.48;;;;;;;15.65;100.00;100253.03;5042133;28;20053;-82
2022/06/10 01:09:47;;;;;;;3.95;1.33;;;;;;;15.88;100.00;100292.91;5044021;28;20483;-82
2022/06/10 01:12:41;;;;;;;4.22;1.52;;;;;;;15.56;100.00;100304.63;5039015;28;20060;-82
2022/06/10 01:15:31;;;;;;;5.50;1.40;;;;;;;16.02;100.00;100298.09;5042900;28;20049;-82
2022/06/10 01:18:23;;;;;;;6.45;1.50;;;;;;;15.98;100.00;100303.72;5047853;28;20056;-82
2022/06/10 01:20:55;;;;;;;4.72;1.17;;;;;;;16.32;100.00;100297.84;5046259;28;20088;-82
2022/06/10 01:23:56;;;;;;;3.97;1.15;;;;;;;16.24;100.00;100286.94;5038742;28;20510;-82
2022/06/10 01:30:07;;;;;;;4.40;1.42;;;;;;;15.79;100.00;100281.16;5039228;28;20515;-82
2022/06/10 01:32:38;;;;;;;4.40;1.38;;;;;;;15.61;100.00;100250.69;5043096;28;20140;-82
2022/06/10 01:35:10;;;;;;;7.28;1.63;;;;;;;15.96;100.00;100273.94;5044561;28;20387;-82
2022/06/10 01:37:50;;;;;;;3.95;1.20;;;;;;;15.89;100.00;100271.69;5043541;28;20049;-82
2022/06/10 01:40:33;;;;;;;6.82;1.50;;;;;;;15.69;100.00;100240.50;5038035;28;20060;-81
2022/06/10 01:43:16;;;;;;;3.22;1.05;;;;;;;15.99;100.00;100260.50;5063235;28;20049;-82
2022/06/10 01:45:55;;;;;;;3.00;1.13;;;;;;;16.00;100.00;100249.00;5053157;28;20056;-82
2022/06/10 01:48:34;;;;;;;4.10;1.30;;;;;;;15.63;100.00;100249.63;5054457;28;20120;-81
2022/06/10 01:51:13;;;;;;;2.38;1.10;;;;;;;15.93;100.00;100240.66;5065799;28;20075;-82
2022/06/10 01:53:50;;;;;;;3.97;1.27;;;;;;;15.85;100.00;100237.69;5045702;28;20049;-82
2022/06/10 01:56:26;;;;;;;6.63;1.88;;;;;;;15.60;100.00;100256.91;5049029;28;20051;-81
2022/06/10 01:59:20;;;;;;;4.85;1.27;;;;;;;16.06;100.00;100262.66;5050929;28;20041;-81
2022/06/10 02:01:50;;;;;;;;;;;;;;;16.11;100.00;100268.47;5047755;28;20059;-82
2022/06/10 02:04:31;;;;;;;6.57;1.75;;;;;;;15.71;100.00;100228.03;5049911;28;19927;-82
2022/06/10 02:07:08;;;;;;;5.25;1.40;;;;;;;15.78;100.00;100244.34;5049574;28;20067;-81
2022/06/10 02:09:46;;;;;;;3.42;1.27;;;;;;;15.71;100.00;100255.25;5050276;28;20049;-81
2022/06/10 02:12:21;;;;;;;14.25;2.40;;;;;;;15.75;100.00;100256.78;5060405;28;20060;-82
2022/06/10 02:14:57;;;;;;;4.32;1.38;;;;;;;15.59;100.00;100231.50;5050004;28;20049;-81
2022/06/10 02:17:28;;;;;;;6.20;1.92;;;;;;;15.41;100.00;100260.78;5049612;28;20053;-82
2022/06/10 02:19:59;;;;;;;4.57;1.30;;;;;;;15.19;100.00;100225.25;5052581;28;20052;-81
2022/06/10 02:22:37;;;;;;;8.68;1.83;;;;;;;15.19;100.00;100245.47;5053645;28;20041;-82
2022/06/10 02:25:13;;;;;;;7.63;2.40;;;;;;;15.25;100.00;100250.38;5053369;28;20131;-82
2022/06/10 02:27:46;;;;;;;6.38;1.77;;;;;;;15.31;100.00;100254.41;5050075;28;20053;-82
2022/06/10 02:30:20;;;;;;;;;;;;;;;15.47;100.00;100264.81;5054132;28;20044;-82
2022/06/10 02:32:47;;;;;;;8.00;2.13;;;;;;;15.23;100.00;100264.59;5051339;28;19994;-82
2022/06/10 02:35:16;;;;;;;8.05;2.10;;;;;;;14.95;100.00;100246.13;5053591;28;20045;-82
2022/06/10 02:37:57;;;;;;;8.80;2.70;;;;;;;15.06;100.00;100266.53;5054881;28;20049;-82
2022/06/10 02:40:35;;;;;;;9.60;2.17;;;;;;;14.95;100.00;100248.75;5050056;28;20072;-82
2022/06/10 02:43:26;;;;;;;9.20;2.33;;;;;;;14.83;100.00;100235.53;5048435;28;20123;-82
2022/06/10 02:46:25;;;;;;;5.82;1.90;;;;;;;15.21;100.00;100255.94;5061393;28;20045;-82
2022/06/10 02:49:01;;;;;;;5.60;1.75;;;;;;;15.26;100.00;100261.75;5043065;28;20483;-82
2022/06/10 02:51:29;;;;;;;4.10;1.45;;;;;;;15.11;100.00;100271.53;5052707;28;20056;-82
2022/06/10 02:53:59;;;;;;;5.65;1.60;;;;;;;15.35;100.00;100269.94;5053224;28;20049;-82
2022/06/10 02:56:28;;;;;;;7.00;1.85;;;;;;;15.46;100.00;100266.59;5053622;28;20045;-82
2022/06/10 03:02:00;;;;;;;4.88;1.73;;;;;;;15.54;100.00;100276.63;5053500;28;20087;-82
2022/06/10 03:04:48;;;;;;;7.00;1.60;;;;;;;15.40;100.00;100282.81;5043246;28;20415;-82
2022/06/10 03:07:15;;;;;;;6.03;1.60;;;;;;;15.35;100.00;100277.84;5052649;28;20045;-82
2022/06/10 03:10:07;;;;;;;4.75;1.58;;;;;;;15.00;100.00;100274.84;5062925;28;20404;-82
2022/06/10 03:13:26;;;;;;;3.92;1.33;;;;;;;14.77;100.00;100239.41;5032520;28;20049;-82
2022/06/10 03:15:56;;;;;;;6.72;1.73;;;;;;;15.07;100.00;100284.06;5042070;28;20545;-82
2022/06/10 03:18:23;;;;;;;5.35;1.70;;;;;;;15.30;100.00;100285.22;5052031;28;20045;-81
2022/06/10 03:21:11;;;;;;;6.25;1.52;;;;;;;15.24;100.00;100277.69;5052209;28;20043;-82
2022/06/10 03:23:53;;;;;;;5.88;2.20;;;;;;;15.23;100.00;100265.47;5052184;28;20053;-82
2022/06/10 03:26:32;;;;;;;9.15;2.28;;;;;;;15.00;100.00;100265.13;5051279;28;20056;-80
2022/06/10 03:29:17;;;;;;;11.98;2.03;;;;;;;14.73;100.00;100248.41;5051663;28;20047;-80
2022/06/10 03:31:51;;;;;;;6.82;1.88;;;;;;;14.80;100.00;100234.78;5051299;28;20053;-80
2022/06/10 03:34:51;;;;;;;10.55;2.60;;;;;;;15.18;100.00;100275.47;5050112;28;20053;-82
2022/06/10 03:37:22;;;;;;;7.38;2.03;;;;;;;14.93;100.00;100240.09;5043413;28;20068;-83
2022/06/10 03:39:56;;;;;;;6.32;1.90;;;;;;;15.33;100.00;100282.38;5053280;28;20044;-82
2022/06/10 03:42:25;;;;;;;9.02;2.63;;;;;;;15.36;100.00;100265.50;5047101;28;20411;-82
2022/06/10 03:44:56;;;;;;;9.10;2.17;;;;;;;15.17;100.00;100264.06;5053864;28;20045;-82
2022/06/10 03:47:32;;;;;;;7.28;2.53;;;;;;;15.38;100.00;100277.63;5053621;28;20397;-82
2022/06/10 03:50:09;;;;;;;6.82;2.15;;;;;;;15.43;100.00;100274.72;5043072;28;20053;-82
2022/06/10 03:52:38;;;;;;;7.65;1.95;;;;;;;15.41;100.00;100271.34;5043761;28;20071;-82
2022/06/10 03:55:06;;;;;;;8.15;2.33;;;;;;;15.30;100.00;100268.56;5052066;28;20053;-82
2022/06/10 03:57:34;;;;;;;8.85;2.55;;;;;;;15.08;100.00;100271.72;5052024;28;20041;-82
2022/06/10 04:00:01;;;;;;;10.70;3.22;;;;;;;15.11;100.00;100227.53;5056458;28;20049;-82
2022/06/10 04:02:28;;;;;;;6.47;2.03;;;;;;;15.40;100.00;100260.88;5050508;28;20086;-82
2022/06/10 04:04:55;;;;;;;11.00;2.90;;;;;;;15.23;100.00;100248.78;5044006;28;20120;-82
2022/06/10 04:07:22;;;;;;;13.07;3.47;;;;;;;15.18;100.00;100239.38;5053361;28;20407;-81
2022/06/10 04:09:48;;;;;;;11.85;2.63;;;;;;;15.78;100.00;100279.50;5051256;28;20045;-82
2022/06/10 04:12:21;;;;;;;9.88;2.70;;;;;;;15.65;100.00;100236.34;5060145;28;20049;-83
2022/06/10 04:14:49;;;;;;;6.72;2.13;;;;;;;16.04;100.00;100277.75;5050786;28;20053;-83
2022/06/10 04:17:15;;;;;;;12.00;3.92;;;;;;;15.73;100.00;100248.09;5052705;28;20071;-83
2022/06/10 04:19:42;;;;;;;10.43;2.42;;;;;;;16.60;100.00;100289.78;5054746;28;20044;-83
2022/06/10 04:22:09;;;;;;;15.13;3.53;;;;;;;16.87;100.00;100284.38;5059577;28;20626;-83
2022/06/10 04:24:36;;;;;;;8.13;2.50;;;;;;;17.16;100.00;100273.53;5052931;28;20059;-83
2022/06/10 04:27:03;;;;;;;8.13;2.58;;;;;;;17.40;100.00;100242.59;5052624;28;20052;-81
2022/06/10 04:29:30;;;;;;;9.98;2.67;;;;;;;17.54;100.00;100293.69;5052058;28;20456;-82
2022/06/10 04:31:57;;;;;;;7.40;2.35;;;;;;;18.18;100.00;100275.63;5049485;28;20049;-82
2022/06/10 04:34:24;;;;;;;9.75;2.72;;;;;;;17.88;100.00;100251.47;5043651;28;20049;-82
2022/06/10 04:36:50;;;;;;;10.73;2.35;;;;;;;18.08;100.00;100269.34;5045038;28;20067;-83
2022/06/10 04:39:17;;;;;;;5.70;1.90;;;;;;;18.29;100.00;100287.19;5046853;28;20048;-82
2022/06/10 04:41:44;;;;;;;10.85;2.58;;;;;;;17.86;100.00;100279.88;5041534;28;20136;-82
2022/06/10 04:44:11;;;;;;;12.50;2.67;;;;;;;18.04;100.00;100294.34;5043564;28;20074;-82
2022/06/10 04:46:44;;;;;;;8.25;2.60;;;;;;;17.78;100.00;100269.84;5048719;28;20052;-83
2022/06/10 04:49:10;;;;;;;9.07;2.55;;;;;;;17.61;100.00;100287.81;5039851;28;20487;-81
2022/06/10 04:51:37;;;;;;;11.90;2.88;;;;;;;17.43;100.00;100286.53;5042622;28;20404;-80
2022/06/10 04:54:06;;;;;;;7.13;2.38;;;;;;;17.06;100.00;100270.69;5041559;28;20057;-81
2022/06/10 04:56:33;;;;;;;8.98;2.38;;;;;;;17.09;100.00;100299.56;5047169;28;20059;-81
2022/06/10 04:59:00;;;;;;;8.60;2.35;;;;;;;17.24;100.00;100294.97;5041741;28;20055;-81
2022/06/10 05:01:27;;;;;;;9.15;2.15;;;;;;;16.85;100.00;100299.50;5049033;28;20407;-82
2022/06/10 05:03:54;;;;;;;7.22;1.98;;;;;;;16.96;100.00;100277.59;5040870;28;20045;-81
2022/06/10 05:06:20;;;;;;;9.23;2.60;;;;;;;16.61;100.00;100302.91;5046071;28;20455;-82
2022/06/10 05:08:48;;;;;;;10.23;2.22;;;;;;;16.51;100.00;100288.63;5046081;28;20057;-82
2022/06/10 05:11:15;;;;;;;7.45;2.20;;;;;;;16.36;100.00;100260.63;5042394;28;20041;-82
2022/06/10 05:13:42;;;;;;;9.65;2.88;;;;;;;16.05;100.00;100266.22;5041199;28;20048;-82
2022/06/10 05:16:11;;;;;;;9.57;2.80;;;;;;;15.92;100.00;100255.66;5045137;28;20056;-82
2022/06/10 05:18:38;;;;;;;11.02;3.13;;;;;;;15.95;100.00;100259.88;5060051;28;20049;-82
2022/06/10 05:21:05;;;;;;;8.20;2.70;;;;;;;15.99;100.00;100258.72;5043605;28;20049;-82
2022/06/10 05:23:32;;;;;;;10.30;2.17;;;;;;;16.26;100.00;100221.66;5055581;28;20049;-83
2022/06/10 05:25:58;;;;;;;10.15;2.65;;;;;;;16.22;100.00;100225.47;5048620;28;20080;-83
2022/06/10 05:28:26;;;;;;;11.15;2.72;;;;;;;16.75;100.00;100277.28;5043369;28;20045;-82
2022/06/10 05:30:53;;;;;;;8.88;2.42;;;;;;;16.98;100.00;100260.69;5049768;28;20051;-82
2022/06/10 05:33:20;;;;;;;12.35;2.88;;;;;;;16.88;100.00;100286.06;5050334;28;20505;-82
2022/06/10 05:35:47;;;;;;;7.95;2.50;;;;;;;16.80;100.00;100283.97;5051646;28;20046;-82
2022/06/10 05:38:14;;;;;;;6.97;2.33;;;;;;;16.82;100.00;100282.03;5046333;28;20060;-82
2022/06/10 05:40:41;;;;;;;12.05;2.70;;;;;;;16.80;100.00;100276.03;5049975;28;20594;-81
2022/06/10 05:43:08;;;;;;;14.77;4.40;;;;;;;16.52;100.00;100290.34;5041243;28;20055;-81
2022/06/10 05:45:40;;;;;;;11.27;3.67;;;;;;;16.46;100.00;100278.38;5042649;28;20079;-81
2022/06/10 05:48:07;;;;;;;18.65;4.60;;;;;;;16.12;100.00;100264.84;5046635;28;20049;-82
2022/06/10 05:50:38;;;;;;;12.38;3.70;;;;;;;16.25;100.00;100277.22;5043314;28;20080;-82
2022/06/10 05:53:07;;;;;;;18.50;4.25;;;;;;;16.32;100.00;100292.56;5044062;28;20056;-82
2022/06/10 05:55:35;;;;;;;16.55;3.63;;;;;;;16.55;100.00;100276.88;5042427;28;20041;-82
2022/06/10 05:58:09;;;;;;;14.70;3.80;;;;;;;16.67;100.00;100273.38;5047457;28;20410;-82
2022/06/10 06:00:36;;;;;;;12.07;3.17;;;;;;;16.77;100.00;100267.44;5050724;28;20053;-83
2022/06/10 06:03:03;;;;;;;15.68;5.22;;;;;;;16.92;100.00;100266.38;5041838;28;20053;-83
2022/06/10 06:05:31;;;;;;;12.98;3.35;;;;;;;17.61;100.00;100276.38;5052374;28;20076;-83
2022/06/10 06:07:58;;;;;;;18.25;4.57;;;;;;;17.44;100.00;100274.97;5047808;28;20055;-83
2022/06/10 06:10:27;;;;;;;14.18;3.55;;;;;;;17.88;100.00;100277.94;5050945;28;20056;-83
2022/06/10 06:12:54;;;;;;;17.00;4.38;;;;;;;18.77;100.00;100249.84;5051559;28;20125;-82
2022/06/10 06:15:22;;;;;;;15.50;4.15;;;;;;;18.95;100.00;100263.47;5052278;28;20052;-82
2022/06/10 06:17:50;;;;;;;15.93;3.78;;;;;;;18.79;100.00;100253.22;5052698;28;20049;-82
2022/06/10 06:20:19;;;;;;;18.88;4.43;;;;;;;18.67;100.00;100239.13;5049828;28;20041;-82
2022/06/10 06:22:46;;;;;;;16.25;4.75;;;;;;;19.11;100.00;100242.69;5069327;28;20479;-82
2022/06/10 06:25:15;;;;;;;19.77;4.35;;;;;;;19.82;100.00;100252.00;5053597;28;20479;-82
2022/06/10 06:27:45;;;;;;;16.83;3.83;;;;;;;20.58;100.00;100243.72;5054130;28;20057;-85
2022/06/10 06:30:26;;;;;;;21.27;4.25;;;;;;;20.23;100.00;100259.06;5054531;28;20144;-82
2022/06/10 06:32:54;;;;;;;12.95;3.25;;;;;;;21.11;100.00;100259.44;5042222;28;20071;-83
2022/06/10 06:35:21;;;;;;;17.15;4.18;;;;;;;21.29;100.00;100245.44;5053212;28;20049;-82
2022/06/10 06:37:47;;;;;;;15.52;4.28;;;;;;;21.73;100.00;100245.91;5052271;28;20049;-85
2022/06/10 06:40:15;;;;;;;16.52;4.45;;;;;;;21.30;100.00;100253.31;5052382;28;20056;-84
2022/06/10 06:42:42;;;;;;;17.52;4.28;;;;;;;20.65;100.00;100263.50;5052589;28;20047;-85
2022/06/10 06:45:09;;;;;;;18.10;4.25;;;;;;;20.71;100.00;100259.47;5056685;28;20048;-81
2022/06/10 06:47:56;;;;;;;18.75;3.95;;;;;;;20.73;100.00;100231.75;5054477;28;20064;-81
2022/06/10 06:50:26;;;;;;;18.30;4.53;;;;;;;20.25;100.00;100230.53;5053548;28;20045;-81
2022/06/10 06:52:53;;;;;;;18.05;4.63;;;;;;;20.41;100.00;100269.09;5051719;28;20127;-81
2022/06/10 06:55:25;;;;;;;17.23;3.90;;;;;;;21.60;100.00;100268.34;5050818;28;20466;-82
2022/06/10 06:57:52;;;;;;;18.55;4.65;;;;;;;21.64;100.00;100266.25;5048841;28;20278;-81
2022/06/10 07:00:20;;;;;;;18.80;4.80;;;;;;;20.89;100.00;100264.97;5048504;28;20048;-81
2022/06/10 07:02:47;;;;;;;23.00;5.60;;;;;;;20.05;100.00;100266.81;5051954;28;20509;-81
2022/06/10 07:05:14;;;;;;;16.52;4.05;;;;;;;20.14;100.00;100267.84;5053500;28;20103;-81
2022/06/10 07:07:41;;;;;;;18.35;3.97;;;;;;;19.92;100.00;100285.63;5051407;28;20055;-81
2022/06/10 07:10:12;;;;;;;15.35;4.00;;;;;;;20.45;100.00;100276.69;5045076;28;20060;-82
2022/06/10 07:12:38;;;;;;;20.42;4.90;;;;;;;20.72;100.00;100264.66;5051927;28;20501;-81
2022/06/10 07:15:06;;;;;;;17.27;4.15;;;;;;;20.59;100.00;100277.31;5051850;28;20123;-82
2022/06/10 07:17:33;;;;;;;15.90;3.90;;;;;;;21.71;100.00;100275.34;5051912;28;20473;-82
2022/06/10 07:20:00;;;;;;;19.52;3.58;;;;;;;21.73;100.00;100288.53;5050732;28;20044;-82
2022/06/10 07:22:27;;;;;;;14.02;3.85;;;;;;;21.76;100.00;100275.75;5050612;28;20049;-82
2022/06/10 07:24:54;;;;;;;17.73;3.53;;;;;;;21.09;100.00;100280.03;5054852;28;20413;-81
2022/06/10 07:27:21;;;;;;;16.25;3.58;;;;;;;20.44;100.00;100258.22;5052621;28;20390;-82
2022/06/10 07:30:01;;;;;;;15.82;3.75;;;;;;;21.59;91.93;100281.78;5051236;28;20052;-82
2022/06/10 07:32:29;;;;;;;16.13;3.60;;;;;;;22.39;93.79;100263.72;5048412;28;20068;-82
2022/06/10 07:34:55;;;;;;;15.65;3.25;;;;;;;22.21;90.84;100276.13;5051991;28;20053;-82
2022/06/10 07:37:23;;;;;;;15.70;3.70;;;;;;;21.69;85.15;100300.44;5053067;28;20102;-82
2022/06/10 07:39:50;;;;;;;17.05;3.40;;;;;;;19.91;93.18;100264.50;5053212;28;20048;-82
2022/06/10 07:42:17;;;;;;;15.77;3.65;;;;;;;19.88;98.99;100294.81;5049851;28;20053;-82
2022/06/10 07:44:44;;;;;;;19.85;4.32;;;;;;;20.45;93.12;100295.31;5051306;28;20056;-81
2022/06/10 07:47:13;;;;;;;18.70;4.10;;;;;;;21.18;91.34;100299.66;5052619;28;20059;-82
2022/06/10 07:49:40;;;;;;;19.17;3.78;;;;;;;21.34;84.68;100301.78;5051201;28;20055;-82
2022/06/10 07:52:07;;;;;;;17.35;3.80;;;;;;;20.51;85.64;100317.88;5039289;28;20476;-81
2022/06/10 07:54:34;;;;;;;19.42;4.75;;;;;;;19.61;94.17;100303.22;5045907;28;20045;-81
2022/06/10 07:57:03;;;;;;;18.85;4.05;;;;;;;19.09;100.00;100303.00;5053098;28;20114;-81
2022/06/10 07:59:31;;;;;;;17.10;3.38;;;;;;;19.50;100.00;100311.25;5051056;28;20047;-81
2022/06/10 08:01:59;;;;;;;19.45;3.75;;;;;;;19.11;100.00;100313.50;5048192;28;20040;-81
2022/06/10 08:04:26;;;;;;;18.15;4.38;;;;;;;18.81;100.00;100303.50;5050592;28;20426;-82
2022/06/10 08:06:53;;;;;;;15.40;3.60;;;;;;;18.37;100.00;100282.16;5047530;28;20106;-81
2022/06/10 08:09:21;;;;;;;17.50;3.40;;;;;;;18.52;100.00;100265.06;5046779;28;20053;-81
2022/06/10 08:11:49;;;;;;;25.77;4.95;;;;;;;18.04;100.00;100307.59;5047882;28;20103;-81
2022/06/10 08:14:16;;;;;;;22.50;4.78;;;;;;;18.37;100.00;100308.66;5050960;28;20063;-81
2022/06/10 08:16:43;;;;;;;27.75;5.20;;;;;;;18.15;100.00;100307.66;5058552;28;20052;-81
2022/06/10 08:19:10;;;;;;;18.50;4.57;;;;;;;18.53;100.00;100309.13;5046232;28;20049;-81
2022/06/10 08:24:23;;;;;;;16.98;3.63;;;;;;;18.38;100.00;100287.34;5056788;28;20036;-81
2022/06/10 08:26:49;;;;;;;23.08;5.00;;;;;;;18.52;100.00;100290.69;5054875;28;20056;-82
2022/06/10 08:29:18;;;;;;;17.75;4.03;;;;;;;18.87;100.00;100290.59;5052313;28;20055;-81
2022/06/10 08:31:45;;;;;;;21.95;4.88;;;;;;;18.69;100.00;100311.44;5049994;28;20128;-81
2022/06/10 08:34:12;;;;;;;27.25;5.03;;;;;;;18.64;100.00;100294.22;5062399;28;20785;-81
2022/06/10 08:36:39;;;;;;;20.00;4.50;;;;;;;18.62;100.00;100302.28;5067065;28;20048;-81
2022/06/10 08:39:05;;;;;;;22.40;4.03;;;;;;;18.77;100.00;100271.91;5066811;28;20057;-81
2022/06/10 08:41:52;;;;;;;24.73;5.55;;;;;;;18.60;100.00;100298.91;5050232;28;20053;-81
2022/06/10 08:44:29;;;;;;;19.05;4.40;;;;;;;18.11;100.00;100303.53;5053136;28;20056;-81
2022/06/10 08:47:17;;;;;;;28.73;5.95;;;;;;;18.02;100.00;100306.88;5042722;28;20515;-82
2022/06/10 08:50:12;;;;;;;19.85;3.90;;;;;;;18.49;100.00;100298.91;5050881;28;20084;-81
2022/06/10 08:53:04;;;;;;;21.58;4.00;;;;;;;18.73;100.00;100301.44;5045783;28;20075;-81
2022/06/10 08:55:52;;;;;;;30.23;5.65;;;;;;;18.40;100.00;100303.94;5041887;28;20063;-81
2022/06/10 08:58:27;;;;;;;19.35;4.05;;;;;;;18.51;100.00;100294.34;5050389;28;20041;-81
2022/06/10 09:01:04;;;;;;;16.63;4.10;;;;;;;18.68;100.00;100312.41;5049861;28;20040;-81
2022/06/10 09:03:41;;;;;;;21.33;4.43;;;;;;;18.64;100.00;100310.13;5046631;28;20052;-81
2022/06/10 09:06:16;;;;;;;20.80;3.90;;;;;;;18.24;100.00;100302.59;5040383;28;20059;-81
2022/06/10 09:08:46;;;;;;;18.15;4.28;;;;;;;18.16;100.00;100296.06;5050256;28;20041;-81
2022/06/10 09:11:30;;;;;;;18.10;4.28;;;;;;;18.46;100.00;100294.69;5043790;28;20363;-84
2022/06/10 09:14:04;;;;;;;19.58;4.82;;;;;;;18.79;100.00;100279.75;5049242;28;20045;-82
2022/06/10 09:16:35;;;;;;;22.80;5.78;;;;;;;18.65;100.00;100259.63;5050964;28;20521;-82
2022/06/10 09:19:08;;;;;;;30.48;5.07;;;;;;;18.91;100.00;100299.16;5049732;28;20403;-82
2022/06/10 09:21:56;;;;;;;21.38;4.53;;;;;;;19.20;100.00;100291.53;5049921;28;20509;-81
2022/06/10 09:24:33;;;;;;;24.08;5.57;;;;;;;17.98;100.00;100287.72;5050541;28;20486;-84
2022/06/10 09:27:35;;;;;;;24.80;6.28;;;;;;;19.11;100.00;100287.81;5061944;28;20554;-85
2022/06/10 09:30:06;;;;;;;20.02;5.25;;;;;;;18.82;100.00;100287.47;5000884;28;20049;-85
2022/06/10 09:33:06;;;;;;;30.75;6.25;;;;;;;18.28;100.00;100236.00;5052445;28;20044;-86
2022/06/10 09:35:34;;;;;;;24.75;5.25;;;;;;;19.43;100.00;100273.72;5054215;28;20110;-85
2022/06/10 09:38:27;;;;;;;19.02;4.38;;;;;;;19.33;100.00;100280.75;5051185;28;20413;-86
2022/06/10 09:41:07;;;;;;;34.58;6.22;;;;;;;19.14;100.00;100287.56;5049845;28;20122;-85
2022/06/10 09:43:53;;;;;;;35.17;6.50;;;;;;;20.21;100.00;100269.00;5050423;28;20041;-86
2022/06/10 09:46:39;;;;;;;27.15;5.85;;;;;;;20.46;100.00;100273.03;5049874;28;20120;-87
2022/06/10 09:49:57;;;;;;;27.88;6.03;;;;;;;20.76;100.00;100267.88;5046065;28;20049;-87
2022/06/10 09:52:36;;;;;;;31.40;5.85;;;;;;;20.36;100.00;100263.34;5025269;28;20048;-85
2022/06/10 09:55:18;;;;;;;27.60;5.43;;;;;;;20.36;100.00;100271.31;5048147;28;20055;-85
2022/06/10 09:57:59;;;;;;;19.08;4.70;;;;;;;20.75;100.00;100267.06;5050332;28;20072;-84
2022/06/10 10:00:48;;;;;;;20.30;4.15;;;;;;;20.84;99.22;100262.72;5044512;28;20048;-84
2022/06/10 10:03:58;;;;;;;17.70;4.43;;;;;;;21.13;89.25;100259.31;5043281;28;20071;-83
2022/06/10 10:06:37;;;;;;;15.63;3.13;;;;;;;21.89;83.77;100269.31;5039908;28;20075;-81
2022/06/10 10:09:13;;;;;;;15.35;2.85;;;;;;;21.74;73.03;100267.06;5046623;28;20049;-79
2022/06/10 10:12:08;;;;;;;19.88;3.38;;;;;;;21.07;73.26;100254.50;5057975;28;20051;-81
2022/06/10 10:15:05;;;;;;;14.60;2.92;;;;;;;20.56;74.42;100264.28;5044844;28;20117;-85
2022/06/10 10:17:50;;;;;;;21.63;4.90;;;;;;;21.88;70.75;100243.63;5041858;28;20041;-86
2022/06/10 10:20:26;;;;;;;15.38;3.33;;;;;;;21.67;72.68;100244.63;5049050;28;20049;-85
2022/06/10 10:23:00;;;;;;;23.23;5.40;;;;;;;20.21;89.55;100268.19;5038512;28;20045;-87
2022/06/10 10:25:27;;;;;;;22.70;4.88;;;;;;;19.69;97.83;100242.34;5044402;28;20063;-85
2022/06/10 10:27:55;;;;;;;25.52;5.30;;;;;;;19.83;100.00;100254.53;5046224;28;20057;-84
2022/06/10 10:30:47;;;;;;;22.73;4.75;;;;;;;20.19;100.00;100288.72;5052639;28;20053;-84
2022/06/10 10:33:15;;;;;;;22.98;4.55;;;;;;;19.87;100.00;100223.22;5048536;28;20407;-84
2022/06/10 10:35:52;;;;;;;17.67;4.57;;;;;;;20.78;98.05;100280.06;5049185;28;20415;-84
2022/06/10 10:38:42;;;;;;;23.60;5.82;;;;;;;20.36;99.65;100268.66;5048990;28;20052;-84
2022/06/10 10:41:21;;;;;;;18.88;4.45;;;;;;;20.45;100.00;100276.69;5044553;28;20072;-84
2022/06/10 10:43:52;;;;;;;21.92;5.47;;;;;;;20.45;98.47;100259.88;5047231;28;20063;-84
2022/06/10 10:46:42;;;;;;;26.05;5.32;;;;;;;21.30;87.96;100218.69;5045320;28;20085;-84
2022/06/10 10:49:30;;;;;;;21.73;4.53;;;;;;;20.75;85.89;100260.88;5043149;28;20136;-84
2022/06/10 10:51:57;;;;;;;15.23;3.53;;;;;;;20.92;85.99;100240.78;5057510;28;20453;-82
2022/06/10 10:54:27;;;;;;;18.08;4.28;;;;;;;21.09;89.28;100271.19;5052417;28;20045;-85
2022/06/10 10:56:55;;;;;;;14.60;2.55;;;;;;;21.52;81.58;100275.34;5052884;28;20053;-83
2022/06/10 10:59:30;;;;;;;15.27;3.30;;;;;;;22.13;68.52;100250.16;5053086;28;20668;-85
2022/06/10 11:01:56;;;;;;;15.23;2.90;;;;;;;22.05;64.01;100255.38;5050159;28;20266;-85
2022/06/10 11:04:31;;;;;;;12.55;2.80;;;;;;;22.70;61.33;100255.44;5052249;28;20730;-84
2022/06/10 11:07:11;;;;;;;9.68;2.40;;;;;;;22.86;59.41;100265.47;5051625;28;20756;-83
2022/06/10 11:10:06;;;;;;;12.25;2.25;;;;;;;22.79;54.96;100264.38;5052904;28;20483;-84
2022/06/10 11:12:33;;;;;;;11.18;2.25;;;;;;;22.30;54.23;100269.94;5055380;28;20124;-85
2022/06/10 11:15:06;;;;;;;10.30;2.38;;;;;;;22.74;55.21;100278.19;5051543;28;20063;-84
2022/06/10 11:17:36;;;;;;;11.18;2.80;;;;;;;22.43;53.40;100240.28;5051374;28;20051;-84
2022/06/10 11:20:22;;;;;;;9.98;2.03;;;;;;;22.36;51.58;100266.69;5053015;28;20399;-84
2022/06/10 11:22:49;;;;;;;14.63;2.60;;;;;;;22.33;50.68;100280.31;5041706;28;20133;-85
2022/06/10 11:25:25;;;;;;;13.38;2.65;;;;;;;22.39;51.86;100261.06;5051888;28;20410;-84
2022/06/10 11:27:57;;;;;;;14.63;2.60;;;;;;;22.56;51.96;100278.13;5048758;28;20710;-84
2022/06/10 11:30:42;;;;;;;13.10;3.22;;;;;;;23.30;51.48;100284.34;5048506;28;20049;-84
2022/06/10 11:33:20;;;;;;;9.93;2.63;;;;;;;23.49;50.73;100278.03;5063695;28;20099;-84
2022/06/10 11:36:01;;;;;;;12.27;2.60;;;;;;;23.42;51.12;100263.59;5048620;28;20049;-84
2022/06/10 11:38:31;;;;;;;12.27;2.58;;;;;;;23.38;51.31;100270.25;5052137;28;20414;-85
2022/06/10 11:41:24;;;;;;;18.23;2.83;;;;;;;21.87;49.48;100255.25;5051776;28;20060;-84
2022/06/10 11:44:00;;;;;;;11.60;2.30;;;;;;;21.78;51.00;100265.81;5040357;28;20567;-84
2022/06/10 11:46:33;;;;;;;14.60;2.72;;;;;;;21.58;52.77;100272.09;5044632;28;20052;-84
2022/06/10 11:49:12;;;;;;;9.80;1.98;;;;;;;21.79;52.28;100277.28;5050824;28;20048;-84
2022/06/10 11:51:47;;;;;;;12.48;2.63;;;;;;;21.91;53.61;100272.66;5041026;28;20044;-83
2022/06/10 11:54:19;;;;;;;12.85;3.20;;;;;;;21.47;54.71;100264.28;5051794;28;20045;-83